Time;durP1;ratioP1;P1;durP2;ratioP2;P2;SDS_P1;SDS_P2;PMS_P1;PMS_P2;Temp;Humidity;BMP_temperature;BMP_pressure;BME280_temperature;BME280_humidity;BME280_pressure;Samples;Min_cycle;Max_cycle;Signal;HPM_P1;HPM_P2
2023/12/06 00:00:29;;;;;;;50.10;26.45;;;-1.00;99.90;;;;;;4972737;28;20397;-61
2023/12/06 00:02:55;;;;;;;44.20;24.77;;;-1.00;99.90;;;;;;4949739;28;20025;-62
2023/12/06 00:05:21;;;;;;;43.55;23.88;;;-1.00;99.90;;;;;;5024860;28;20512;-62
2023/12/06 00:07:47;;;;;;;47.60;25.23;;;-1.00;99.90;;;;;;4977362;28;20045;-59
2023/12/06 00:10:12;;;;;;;49.75;26.40;;;-1.00;99.90;;;;;;4971594;28;20108;-60
2023/12/06 00:12:38;;;;;;;45.08;26.70;;;-1.00;99.90;;;;;;4976394;28;20030;-61
2023/12/06 00:15:04;;;;;;;43.53;24.77;;;-1.00;99.90;;;;;;4946549;28;20508;-61
2023/12/06 00:17:30;;;;;;;43.83;24.33;;;-1.00;99.90;;;;;;4988052;28;20040;-65
2023/12/06 00:19:55;;;;;;;42.75;24.73;;;-1.00;99.90;;;;;;4977219;28;20025;-63
2023/12/06 00:22:21;;;;;;;46.28;25.90;;;-1.00;99.90;;;;;;4975872;28;20446;-63
2023/12/06 00:24:46;;;;;;;43.55;24.48;;;-1.00;99.90;;;;;;4960745;28;20124;-62
2023/12/06 00:27:12;;;;;;;45.45;27.38;;;-1.00;99.90;;;;;;4947931;28;20612;-62
2023/12/06 00:29:37;;;;;;;47.38;24.98;;;-1.00;99.90;;;;;;4948079;28;20045;-63
2023/12/06 00:32:03;;;;;;;49.65;24.85;;;-1.00;99.90;;;;;;4998874;28;20402;-63
2023/12/06 00:34:29;;;;;;;48.90;27.60;;;-1.00;99.90;;;;;;4967615;28;20163;-63
2023/12/06 00:36:54;;;;;;;44.70;25.10;;;-1.00;99.90;;;;;;4969544;28;20108;-63
2023/12/06 00:39:20;;;;;;;47.58;27.10;;;-1.00;99.90;;;;;;4956695;28;20025;-63
2023/12/06 00:41:45;;;;;;;50.70;26.10;;;-1.00;99.90;;;;;;4968187;28;21256;-63
2023/12/06 00:44:11;;;;;;;48.65;25.15;;;-1.00;99.90;;;;;;5026945;28;20020;-63
2023/12/06 00:46:36;;;;;;;46.28;26.38;;;-1.00;99.90;;;;;;4985458;28;20040;-61
2023/12/06 00:49:03;;;;;;;43.55;24.00;;;-1.00;99.90;;;;;;4949011;28;20053;-59
2023/12/06 00:51:29;;;;;;;51.90;26.23;;;-1.00;99.90;;;;;;5009311;28;20417;-63
2023/12/06 00:53:54;;;;;;;48.03;27.00;;;-0.90;99.90;;;;;;4974410;28;21442;-62
2023/12/06 00:56:20;;;;;;;50.17;26.27;;;-1.00;99.90;;;;;;4999320;28;20033;-62
2023/12/06 00:58:45;;;;;;;42.90;25.23;;;-0.90;99.90;;;;;;4983921;28;20080;-63
2023/12/06 01:01:12;;;;;;;53.47;27.33;;;-0.90;99.90;;;;;;4980764;28;20077;-63
2023/12/06 01:03:40;;;;;;;39.85;23.80;;;-0.90;99.90;;;;;;4955793;28;20029;-63
2023/12/06 01:06:06;;;;;;;45.30;24.40;;;-0.90;99.90;;;;;;4976131;28;20449;-62
2023/12/06 01:08:32;;;;;;;44.42;24.17;;;-0.90;99.90;;;;;;4980540;28;20505;-64
2023/12/06 01:10:57;;;;;;;50.33;26.13;;;-0.90;99.90;;;;;;4961974;28;20477;-63
2023/12/06 01:13:24;;;;;;;43.40;24.38;;;-0.90;99.90;;;;;;4950657;28;20035;-62
2023/12/06 01:15:50;;;;;;;40.47;22.88;;;-0.90;99.90;;;;;;4994862;28;20468;-61
2023/12/06 01:18:15;;;;;;;42.70;22.92;;;-0.90;99.90;;;;;;4929742;28;20092;-62
2023/12/06 01:20:41;;;;;;;44.17;24.50;;;-0.90;99.90;;;;;;5005340;28;20517;-63
2023/12/06 01:23:07;;;;;;;38.17;23.58;;;-0.90;99.90;;;;;;4978681;28;20017;-63
2023/12/06 01:25:33;;;;;;;46.55;25.17;;;-0.80;99.90;;;;;;4975882;28;20500;-63
2023/12/06 01:27:59;;;;;;;45.15;24.17;;;-0.80;99.90;;;;;;4997933;28;22406;-63
2023/12/06 01:30:24;;;;;;;47.95;23.25;;;-0.80;99.90;;;;;;4979557;28;20124;-64
2023/12/06 01:32:50;;;;;;;40.90;22.77;;;-0.80;99.90;;;;;;4999350;28;20517;-63
2023/12/06 01:35:16;;;;;;;41.13;22.60;;;-0.80;99.90;;;;;;4968779;28;20029;-63
2023/12/06 01:37:41;;;;;;;40.60;22.65;;;-0.80;99.90;;;;;;4994310;28;20402;-63
2023/12/06 01:40:08;;;;;;;42.33;24.17;;;-0.80;99.90;;;;;;4953841;28;20045;-64
2023/12/06 01:42:34;;;;;;;42.20;23.27;;;-0.80;99.90;;;;;;4974137;28;20061;-64
2023/12/06 01:45:00;;;;;;;40.50;24.20;;;-0.80;99.90;;;;;;5016946;28;20513;-63
2023/12/06 01:47:27;;;;;;;42.15;23.45;;;-0.80;99.90;;;;;;4971994;28;20540;-63
2023/12/06 01:49:56;;;;;;;43.20;24.35;;;-0.80;99.90;;;;;;4954538;28;20021;-64
2023/12/06 01:52:22;;;;;;;43.65;24.63;;;-0.80;99.90;;;;;;4974080;28;20033;-60
2023/12/06 01:54:48;;;;;;;43.83;23.83;;;-0.80;99.90;;;;;;4953846;28;21711;-62
2023/12/06 01:57:14;;;;;;;42.92;23.45;;;-0.80;99.90;;;;;;4988809;28;20571;-64
2023/12/06 01:59:40;;;;;;;40.05;23.38;;;-0.80;99.90;;;;;;4972598;28;20037;-62
2023/12/06 02:02:06;;;;;;;45.28;23.60;;;-0.70;99.90;;;;;;5009755;28;20490;-64
2023/12/06 02:04:33;;;;;;;41.28;23.63;;;-0.70;99.90;;;;;;4978810;28;20021;-65
2023/12/06 02:06:59;;;;;;;43.85;23.00;;;-0.70;99.90;;;;;;4959558;28;20033;-64
2023/12/06 02:09:26;;;;;;;44.35;23.50;;;-0.70;99.90;;;;;;4987168;28;20025;-64
2023/12/06 02:11:52;;;;;;;45.92;26.13;;;-0.70;99.90;;;;;;4960915;28;20032;-63
2023/12/06 02:14:17;;;;;;;42.88;23.35;;;-0.70;99.90;;;;;;4937889;28;20025;-63
2023/12/06 02:16:43;;;;;;;46.55;24.85;;;-0.70;99.90;;;;;;4963736;28;20048;-64
2023/12/06 02:19:22;;;;;;;41.33;23.30;;;-0.70;99.90;;;;;;4959689;28;20091;-63
2023/12/06 02:21:49;;;;;;;46.88;24.15;;;-0.70;99.90;;;;;;4984685;28;21760;-64
2023/12/06 02:24:17;;;;;;;52.10;25.90;;;-0.70;99.90;;;;;;5013386;28;20033;-64
2023/12/06 02:26:43;;;;;;;44.80;24.52;;;-0.70;99.90;;;;;;4981697;28;20632;-64
2023/12/06 02:29:08;;;;;;;44.70;25.30;;;-0.70;99.90;;;;;;4980764;28;20038;-63
2023/12/06 02:31:34;;;;;;;46.85;25.73;;;-0.70;99.90;;;;;;4976839;28;20024;-64
2023/12/06 02:34:06;;;;;;;46.28;24.05;;;-0.70;99.90;;;;;;4973169;28;20065;-64
2023/12/06 02:36:33;;;;;;;49.55;25.10;;;-0.70;99.90;;;;;;4975979;28;20042;-65
2023/12/06 02:38:59;;;;;;;48.88;24.80;;;-0.70;99.90;;;;;;4994028;28;20425;-63
2023/12/06 02:41:27;;;;;;;46.50;25.45;;;-0.70;99.90;;;;;;4966776;28;20033;-63
2023/12/06 02:43:52;;;;;;;47.20;25.15;;;-0.70;99.90;;;;;;4983486;28;20112;-63
2023/12/06 02:46:18;;;;;;;46.35;24.73;;;-0.70;99.90;;;;;;4971693;28;20040;-63
2023/12/06 02:48:43;;;;;;;44.15;24.25;;;-0.70;99.90;;;;;;4967828;28;20101;-64
2023/12/06 02:51:09;;;;;;;47.03;25.42;;;-0.70;99.90;;;;;;5023573;28;20124;-63
2023/12/06 02:53:34;;;;;;;45.08;24.30;;;-0.70;99.90;;;;;;4956559;28;20040;-63
2023/12/06 02:56:00;;;;;;;43.88;25.17;;;-0.70;99.90;;;;;;4977532;28;20112;-63
2023/12/06 02:58:25;;;;;;;48.97;24.77;;;-0.70;99.90;;;;;;4975724;28;20095;-63
2023/12/06 03:00:51;;;;;;;46.65;25.08;;;-0.70;99.90;;;;;;4967027;28;21599;-63
2023/12/06 03:03:16;;;;;;;50.05;26.75;;;-0.70;99.90;;;;;;5025505;28;20475;-63
2023/12/06 03:05:42;;;;;;;48.72;23.92;;;-0.70;99.90;;;;;;4971242;28;20460;-64
2023/12/06 03:08:08;;;;;;;42.33;23.45;;;-0.70;99.90;;;;;;4942540;28;20464;-64
2023/12/06 03:10:34;;;;;;;46.80;24.33;;;-0.70;99.90;;;;;;4942716;28;20083;-63
2023/12/06 03:12:59;;;;;;;43.60;23.20;;;-0.70;99.90;;;;;;4947428;28;20673;-63
2023/12/06 03:15:25;;;;;;;44.92;25.50;;;-0.70;99.90;;;;;;5024234;28;20797;-63
2023/12/06 03:17:50;;;;;;;46.90;23.77;;;-0.70;99.90;;;;;;4945086;28;20049;-65
2023/12/06 03:20:16;;;;;;;46.60;24.55;;;-0.70;99.90;;;;;;4960037;28;20105;-63
2023/12/06 03:22:41;;;;;;;48.35;24.48;;;-0.70;99.90;;;;;;4965228;28;20687;-63
2023/12/06 03:25:07;;;;;;;45.83;23.58;;;-0.60;99.90;;;;;;4949566;28;20262;-65
2023/12/06 03:27:33;;;;;;;44.42;23.85;;;-0.60;99.90;;;;;;4953605;28;20036;-65
2023/12/06 03:29:59;;;;;;;43.88;24.35;;;-0.60;99.90;;;;;;4982497;28;20053;-64
2023/12/06 03:32:24;;;;;;;49.22;25.25;;;-0.60;99.90;;;;;;4960139;28;20112;-64
2023/12/06 03:34:50;;;;;;;42.25;23.52;;;-0.60;99.90;;;;;;4937436;28;20025;-64
2023/12/06 03:37:15;;;;;;;44.42;24.92;;;-0.60;99.90;;;;;;4935312;28;20025;-65
2023/12/06 03:39:41;;;;;;;46.00;24.33;;;-0.60;99.90;;;;;;4957208;28;20037;-66
2023/12/06 03:42:06;;;;;;;48.78;25.85;;;-0.60;99.90;;;;;;5027215;28;20029;-65
2023/12/06 03:44:32;;;;;;;52.35;26.58;;;-0.60;99.90;;;;;;4964540;28;20102;-64
2023/12/06 03:46:57;;;;;;;48.05;24.38;;;-0.60;99.90;;;;;;4962524;28;20037;-67
2023/12/06 03:49:24;;;;;;;45.08;25.02;;;-0.50;99.90;;;;;;4948688;28;20444;-68
2023/12/06 03:51:49;;;;;;;53.75;26.80;;;-0.50;99.90;;;;;;4952954;28;20152;-64
2023/12/06 03:54:15;;;;;;;47.70;26.98;;;-0.50;99.90;;;;;;5024687;28;20028;-67
2023/12/06 03:56:41;;;;;;;50.47;27.33;;;-0.50;99.90;;;;;;4962885;28;20048;-68
2023/12/06 03:59:06;;;;;;;45.28;25.83;;;-0.50;99.90;;;;;;4967841;28;20029;-68
2023/12/06 04:01:32;;;;;;;42.17;24.95;;;-0.50;99.90;;;;;;4972659;28;20510;-67
2023/12/06 04:03:58;;;;;;;50.25;27.17;;;-0.50;99.90;;;;;;4952228;28;20028;-68
2023/12/06 04:06:23;;;;;;;47.63;26.08;;;-0.50;99.90;;;;;;4966257;28;20026;-69
2023/12/06 04:08:49;;;;;;;45.53;25.15;;;-0.50;99.90;;;;;;4969606;28;20132;-69
2023/12/06 04:11:14;;;;;;;45.58;25.90;;;-0.50;99.90;;;;;;4996841;28;20026;-68
2023/12/06 04:13:40;;;;;;;51.78;27.00;;;-0.50;99.90;;;;;;4974598;28;20052;-67
2023/12/06 04:16:06;;;;;;;45.55;26.30;;;-0.50;99.90;;;;;;4985443;28;20034;-68
2023/12/06 04:18:32;;;;;;;56.38;27.50;;;-0.50;99.90;;;;;;5000673;28;20029;-71
2023/12/06 04:20:57;;;;;;;47.47;26.30;;;-0.50;99.90;;;;;;4987012;28;20034;-68
2023/12/06 04:23:23;;;;;;;45.50;26.98;;;-0.50;99.90;;;;;;4971784;28;20501;-67
2023/12/06 04:25:48;;;;;;;52.05;27.48;;;-0.50;99.90;;;;;;4924243;28;20594;-69
2023/12/06 04:28:14;;;;;;;48.35;25.83;;;-0.50;99.90;;;;;;4969672;28;20115;-67
2023/12/06 04:30:40;;;;;;;54.90;27.63;;;-0.60;99.90;;;;;;4988077;28;20025;-68
2023/12/06 04:33:05;;;;;;;53.08;26.58;;;-0.50;99.90;;;;;;5004585;28;20458;-67
2023/12/06 04:35:31;;;;;;;47.63;25.60;;;-0.50;99.90;;;;;;4931405;28;20673;-68
2023/12/06 04:37:56;;;;;;;49.70;25.83;;;-0.60;99.90;;;;;;4990986;28;20549;-68
2023/12/06 04:40:22;;;;;;;47.08;27.10;;;-0.50;99.90;;;;;;5002373;28;20055;-69
2023/12/06 04:42:47;;;;;;;51.88;27.23;;;-0.50;99.90;;;;;;4991354;28;20049;-70
2023/12/06 04:45:13;;;;;;;46.40;25.10;;;-0.50;99.90;;;;;;4997588;28;20052;-68
2023/12/06 04:47:38;;;;;;;47.50;26.17;;;-0.50;99.90;;;;;;4990806;28;20040;-69
2023/12/06 04:50:05;;;;;;;45.97;26.38;;;-0.50;99.90;;;;;;4976876;28;20026;-68
2023/12/06 04:52:31;;;;;;;56.70;29.42;;;-0.50;99.90;;;;;;4977228;28;20102;-71
2023/12/06 04:54:57;;;;;;;50.25;26.98;;;-0.50;99.90;;;;;;5015069;28;20486;-69
2023/12/06 04:57:22;;;;;;;55.80;29.38;;;-0.50;99.90;;;;;;4992869;28;20088;-68
2023/12/06 04:59:48;;;;;;;54.22;26.85;;;-0.50;99.90;;;;;;4997311;28;20041;-69
2023/12/06 05:02:13;;;;;;;52.13;26.52;;;-0.50;99.90;;;;;;4999764;28;20028;-68
2023/12/06 05:04:39;;;;;;;57.40;28.75;;;-0.50;99.90;;;;;;4981741;28;20398;-67
2023/12/06 05:07:04;;;;;;;52.00;28.67;;;-0.50;99.90;;;;;;5021206;28;20808;-69
2023/12/06 05:09:30;;;;;;;49.03;26.15;;;-0.50;99.90;;;;;;4991780;28;20394;-69
2023/12/06 05:11:55;;;;;;;53.88;27.75;;;-0.50;99.90;;;;;;4998539;28;20502;-69
2023/12/06 05:14:21;;;;;;;53.58;28.70;;;-0.50;99.90;;;;;;4975162;28;20029;-68
2023/12/06 05:16:46;;;;;;;64.20;30.02;;;-0.50;99.90;;;;;;5025131;28;20037;-68
2023/12/06 05:19:12;;;;;;;51.28;26.48;;;-0.50;99.90;;;;;;5023664;28;20486;-68
2023/12/06 05:21:38;;;;;;;51.30;28.75;;;-0.50;99.90;;;;;;4970723;28;20289;-68
2023/12/06 05:24:03;;;;;;;53.63;29.40;;;-0.50;99.90;;;;;;4998560;28;20104;-69
2023/12/06 05:26:29;;;;;;;52.10;29.80;;;-0.50;99.90;;;;;;4975299;28;20120;-68
2023/12/06 05:28:54;;;;;;;59.83;30.20;;;-0.50;99.90;;;;;;4970098;28;20025;-69
2023/12/06 05:31:21;;;;;;;61.13;30.15;;;-0.50;99.90;;;;;;5005586;28;20037;-68
2023/12/06 05:33:48;;;;;;;57.67;30.90;;;-0.50;99.90;;;;;;4974629;28;20033;-68
2023/12/06 05:36:14;;;;;;;55.92;29.27;;;-0.50;99.90;;;;;;4981319;28;20732;-68
2023/12/06 05:38:39;;;;;;;59.08;30.60;;;-0.50;99.90;;;;;;4987995;28;20022;-68
2023/12/06 05:41:05;;;;;;;63.97;33.45;;;-0.50;99.90;;;;;;4979873;28;20478;-69
2023/12/06 05:43:31;;;;;;;55.22;30.98;;;-0.50;99.90;;;;;;4985960;28;20032;-70
2023/12/06 05:45:56;;;;;;;55.58;29.50;;;-0.50;99.90;;;;;;4988814;28;20029;-67
2023/12/06 05:48:22;;;;;;;57.97;28.90;;;-0.50;99.90;;;;;;4966263;28;20022;-68
2023/12/06 05:50:47;;;;;;;60.72;31.17;;;-0.50;99.90;;;;;;4981946;28;20038;-68
2023/12/06 05:53:13;;;;;;;59.90;28.33;;;-0.50;99.90;;;;;;4957043;28;20030;-68
2023/12/06 05:55:40;;;;;;;56.30;30.80;;;-0.60;99.90;;;;;;4957098;28;20104;-68
2023/12/06 05:58:05;;;;;;;59.15;28.27;;;-0.50;99.90;;;;;;5018616;28;20112;-68
2023/12/06 06:00:31;;;;;;;63.85;32.35;;;-0.50;99.90;;;;;;4979907;28;20112;-68
2023/12/06 06:02:58;;;;;;;65.32;31.02;;;-0.60;99.90;;;;;;4959424;28;20086;-68
2023/12/06 06:05:24;;;;;;;62.63;30.55;;;-0.60;99.90;;;;;;4976960;28;20032;-68
2023/12/06 06:07:49;;;;;;;64.22;32.47;;;-0.50;99.90;;;;;;4979235;28;21708;-68
2023/12/06 06:10:15;;;;;;;67.47;33.28;;;-0.50;99.90;;;;;;5011449;28;20021;-68
2023/12/06 06:12:40;;;;;;;66.03;32.28;;;-0.50;99.90;;;;;;4971681;28;20049;-69
2023/12/06 06:15:08;;;;;;;55.90;29.55;;;-0.50;99.90;;;;;;4958582;28;20022;-69
2023/12/06 06:17:36;;;;;;;61.58;33.50;;;-0.50;99.90;;;;;;4947388;28;20240;-67
2023/12/06 06:20:02;;;;;;;60.83;32.20;;;-0.50;99.90;;;;;;4956168;28;20033;-67
2023/12/06 06:22:27;;;;;;;67.72;32.38;;;-0.50;99.90;;;;;;4988881;28;20044;-68
2023/12/06 06:24:53;;;;;;;64.07;32.00;;;-0.60;99.90;;;;;;4958752;28;20032;-68
2023/12/06 06:27:19;;;;;;;56.70;30.70;;;-0.60;99.90;;;;;;4976351;28;20029;-69
2023/12/06 06:29:44;;;;;;;65.80;31.88;;;-0.60;99.90;;;;;;4949914;28;20425;-68
2023/12/06 06:32:10;;;;;;;69.10;32.35;;;-0.60;99.90;;;;;;4972664;28;20033;-69
2023/12/06 06:34:36;;;;;;;67.68;31.92;;;-0.60;99.90;;;;;;4963494;28;20041;-71
2023/12/06 06:37:02;;;;;;;67.50;34.05;;;-0.60;99.90;;;;;;4986221;28;20025;-68
2023/12/06 06:39:28;;;;;;;66.88;32.60;;;-0.60;99.90;;;;;;4945178;28;20035;-68
2023/12/06 06:41:54;;;;;;;68.95;33.03;;;-0.60;99.90;;;;;;4969144;28;20021;-68
2023/12/06 06:44:20;;;;;;;68.88;35.03;;;-0.60;99.90;;;;;;4922950;28;20381;-69
2023/12/06 06:46:46;;;;;;;70.82;33.90;;;-0.60;99.90;;;;;;4943077;28;20033;-68
2023/12/06 06:49:11;;;;;;;70.00;34.60;;;-0.50;99.90;;;;;;5014057;28;20262;-69
2023/12/06 06:51:37;;;;;;;70.25;33.92;;;-0.50;99.90;;;;;;4939341;28;20037;-69
2023/12/06 06:54:04;;;;;;;65.47;32.13;;;-0.50;99.90;;;;;;4964200;28;20026;-68
2023/12/06 06:56:30;;;;;;;78.30;35.67;;;-0.60;99.90;;;;;;4954167;28;20025;-68
2023/12/06 06:58:56;;;;;;;69.40;33.97;;;-0.60;99.90;;;;;;4915192;28;20429;-65
2023/12/06 07:01:21;;;;;;;70.97;34.42;;;-0.60;99.90;;;;;;4991430;28;20509;-67
2023/12/06 07:03:47;;;;;;;76.72;34.67;;;-0.60;99.90;;;;;;4960418;28;21081;-66
2023/12/06 07:06:13;;;;;;;69.05;34.72;;;-0.50;99.90;;;;;;4956029;28;20072;-67
2023/12/06 07:08:39;;;;;;;68.78;33.67;;;-0.50;99.90;;;;;;4952764;28;20512;-67
2023/12/06 07:11:06;;;;;;;74.78;35.47;;;-0.60;99.90;;;;;;4979336;28;20021;-67
2023/12/06 07:13:32;;;;;;;73.00;32.80;;;-0.50;99.90;;;;;;5001942;28;20022;-67
2023/12/06 07:15:58;;;;;;;80.45;36.53;;;-0.50;99.90;;;;;;4993969;28;20022;-67
2023/12/06 07:18:25;;;;;;;77.47;34.35;;;-0.50;99.90;;;;;;4970942;28;20029;-68
2023/12/06 07:20:51;;;;;;;78.20;38.03;;;-0.50;99.90;;;;;;4966349;28;20021;-67
2023/12/06 07:23:18;;;;;;;78.10;34.85;;;-0.50;99.90;;;;;;4928457;28;20033;-67
2023/12/06 07:25:45;;;;;;;72.35;34.38;;;-0.50;99.90;;;;;;4934216;28;20100;-68
2023/12/06 07:28:11;;;;;;;67.40;33.08;;;-0.50;99.90;;;;;;4985657;28;21568;-67
2023/12/06 07:30:36;;;;;;;76.28;34.88;;;-0.50;99.90;;;;;;4940062;28;20018;-67
2023/12/06 07:33:02;;;;;;;84.95;38.05;;;-0.50;99.90;;;;;;4952927;28;20032;-67
2023/12/06 07:35:27;;;;;;;76.75;36.80;;;-0.50;99.90;;;;;;4968799;28;20030;-67
2023/12/06 07:37:53;;;;;;;73.05;35.35;;;-0.50;99.90;;;;;;4936659;28;21718;-67
2023/12/06 07:40:19;;;;;;;69.30;33.70;;;-0.50;99.90;;;;;;4985828;28;20067;-67
2023/12/06 07:42:44;;;;;;;79.43;35.25;;;-0.50;99.90;;;;;;4989660;28;20030;-67
2023/12/06 07:45:11;;;;;;;81.38;36.97;;;-0.50;99.90;;;;;;4907044;28;20028;-67
2023/12/06 07:47:39;;;;;;;70.57;35.42;;;-0.50;99.90;;;;;;4933316;28;20029;-67
2023/12/06 07:50:09;;;;;;;73.53;35.75;;;-0.50;99.90;;;;;;4994960;28;20498;-67
2023/12/06 07:52:34;;;;;;;71.45;35.28;;;-0.50;99.90;;;;;;5010721;28;20017;-67
2023/12/06 07:55:00;;;;;;;77.18;35.03;;;-0.50;99.90;;;;;;4972118;28;20024;-67
2023/12/06 07:57:28;;;;;;;74.93;37.72;;;-0.40;99.90;;;;;;4982440;28;22076;-66
2023/12/06 07:59:55;;;;;;;72.72;36.42;;;-0.50;99.90;;;;;;4977255;28;20496;-66
2023/12/06 08:02:21;;;;;;;80.43;36.63;;;-0.50;99.90;;;;;;4967249;28;20060;-66
2023/12/06 08:04:46;;;;;;;79.85;38.78;;;-0.40;99.90;;;;;;4972390;28;20060;-67
2023/12/06 08:07:12;;;;;;;70.20;35.90;;;-0.40;99.90;;;;;;5006503;28;20025;-66
2023/12/06 08:09:39;;;;;;;78.97;35.55;;;-0.40;99.90;;;;;;5000712;28;20060;-67
2023/12/06 08:12:06;;;;;;;82.28;35.00;;;-0.40;99.90;;;;;;5000943;28;20029;-67
2023/12/06 08:14:31;;;;;;;85.95;38.17;;;-0.50;99.90;;;;;;4956397;28;20057;-68
2023/12/06 08:16:57;;;;;;;76.50;35.55;;;-0.40;99.90;;;;;;5009018;28;20025;-66
2023/12/06 08:19:23;;;;;;;80.28;36.53;;;-0.40;99.90;;;;;;4971079;28;20061;-67
2023/12/06 08:21:49;;;;;;;69.78;35.28;;;-0.40;99.90;;;;;;4989076;28;20071;-67
2023/12/06 08:24:15;;;;;;;82.15;35.90;;;-0.40;99.90;;;;;;4992898;28;20090;-67
2023/12/06 08:26:42;;;;;;;75.93;36.33;;;-0.40;99.90;;;;;;4986161;28;20069;-67
2023/12/06 08:29:08;;;;;;;74.68;37.45;;;-0.40;99.90;;;;;;5001055;28;20025;-66
2023/12/06 08:31:33;;;;;;;78.22;36.88;;;-0.40;99.90;;;;;;4992727;28;20405;-67
2023/12/06 08:33:59;;;;;;;79.55;37.17;;;-0.40;99.90;;;;;;4960784;28;20132;-67
2023/12/06 08:36:25;;;;;;;79.30;37.17;;;-0.40;99.90;;;;;;5016838;28;20081;-67
2023/12/06 08:38:50;;;;;;;75.13;36.97;;;-0.40;99.90;;;;;;5013338;28;20043;-67
2023/12/06 08:41:16;;;;;;;83.75;35.80;;;-0.40;99.90;;;;;;5010213;28;20033;-67
2023/12/06 08:43:43;;;;;;;87.63;38.38;;;-0.40;99.90;;;;;;4999929;28;20030;-67
2023/12/06 08:46:09;;;;;;;75.45;38.30;;;-0.40;99.90;;;;;;4986186;28;20035;-67
2023/12/06 08:48:35;;;;;;;79.80;38.38;;;-0.30;99.90;;;;;;4980395;28;20057;-67
2023/12/06 08:51:02;;;;;;;75.30;36.55;;;-0.30;99.90;;;;;;4981034;28;20122;-67
2023/12/06 08:53:28;;;;;;;78.57;37.75;;;-0.30;99.90;;;;;;5027436;28;20179;-67
2023/12/06 08:55:54;;;;;;;79.80;39.17;;;-0.30;99.90;;;;;;5001542;28;20414;-68
2023/12/06 08:58:20;;;;;;;74.43;37.88;;;-0.30;99.90;;;;;;4990977;28;20358;-68
2023/12/06 09:00:46;;;;;;;77.88;38.42;;;-0.20;99.90;;;;;;4971810;28;20033;-66
2023/12/06 09:03:11;;;;;;;81.50;36.75;;;-0.20;99.90;;;;;;4986501;28;20429;-67
2023/12/06 09:05:38;;;;;;;82.40;38.05;;;-0.20;99.90;;;;;;4976083;28;20408;-68
2023/12/06 09:08:04;;;;;;;80.25;37.65;;;-0.20;99.90;;;;;;5007028;28;20032;-67
2023/12/06 09:10:30;;;;;;;85.13;36.97;;;-0.20;99.90;;;;;;4969789;28;20080;-67
2023/12/06 09:12:56;;;;;;;80.85;38.58;;;-0.20;99.90;;;;;;5023139;28;20501;-67
2023/12/06 09:15:21;;;;;;;82.90;39.67;;;-0.20;99.90;;;;;;4963586;28;20054;-66
2023/12/06 09:17:47;;;;;;;87.95;38.53;;;-0.20;99.90;;;;;;4960648;28;20060;-67
2023/12/06 09:20:13;;;;;;;81.88;37.35;;;-0.10;99.90;;;;;;5012932;28;20413;-66
2023/12/06 09:22:39;;;;;;;77.85;38.35;;;-0.10;99.90;;;;;;4989454;28;20044;-66
2023/12/06 09:25:05;;;;;;;77.20;37.67;;;-0.10;99.90;;;;;;4987976;28;20034;-66
2023/12/06 09:27:32;;;;;;;72.47;38.05;;;-0.10;99.90;;;;;;4968676;28;20041;-67
2023/12/06 09:29:57;;;;;;;74.15;36.72;;;-0.10;99.90;;;;;;4960666;28;20056;-67
2023/12/06 09:32:23;;;;;;;78.00;37.35;;;-0.10;99.90;;;;;;5030445;28;20481;-67
2023/12/06 09:34:49;;;;;;;83.72;38.65;;;-0.10;99.90;;;;;;4982984;28;20532;-68
2023/12/06 09:37:15;;;;;;;81.30;37.33;;;-0.10;99.90;;;;;;4950248;28;20136;-67
2023/12/06 09:39:41;;;;;;;90.57;38.35;;;-0.10;99.90;;;;;;4970145;28;20554;-67
2023/12/06 09:42:07;;;;;;;83.40;38.75;;;0.00;99.90;;;;;;5015102;28;20083;-67
2023/12/06 09:44:36;;;;;;;76.53;37.30;;;0.00;99.90;;;;;;4990818;28;20037;-67
2023/12/06 09:47:02;;;;;;;89.00;38.53;;;0.00;99.90;;;;;;5016794;28;20025;-66
2023/12/06 09:49:27;;;;;;;76.38;36.30;;;0.00;99.90;;;;;;4955473;28;20041;-64
2023/12/06 09:52:03;;;;;;;88.15;37.10;;;0.00;99.90;;;;;;4962306;28;20494;-66
2023/12/06 09:54:28;;;;;;;80.50;37.83;;;0.00;99.90;;;;;;4972441;28;20034;-65
2023/12/06 09:56:54;;;;;;;80.75;35.70;;;0.00;99.90;;;;;;4979319;28;20033;-65
2023/12/06 09:59:19;;;;;;;85.82;37.83;;;0.00;99.90;;;;;;5004702;28;20380;-65
2023/12/06 10:01:45;;;;;;;79.65;38.58;;;0.00;99.90;;;;;;4976378;28;20547;-64
2023/12/06 10:04:10;;;;;;;78.82;37.20;;;0.00;99.90;;;;;;4961270;28;20542;-65
2023/12/06 10:06:36;;;;;;;87.35;41.28;;;0.00;99.90;;;;;;4973469;28;20029;-64
2023/12/06 10:09:03;;;;;;;93.05;40.13;;;0.00;99.90;;;;;;4943189;28;20473;-65
2023/12/06 10:11:29;;;;;;;80.93;36.72;;;0.00;99.90;;;;;;4987562;28;20033;-66
2023/12/06 10:13:54;;;;;;;75.13;36.63;;;0.00;99.90;;;;;;4950512;28;20021;-64
2023/12/06 10:16:21;;;;;;;66.93;35.88;;;0.00;99.90;;;;;;4951962;28;20026;-64
2023/12/06 10:18:48;;;;;;;83.05;38.88;;;0.00;99.90;;;;;;5001980;22;20395;-59
2023/12/06 10:21:14;;;;;;;91.90;41.50;;;0.00;99.90;;;;;;4951765;28;20381;-57
2023/12/06 10:23:42;;;;;;;97.40;39.05;;;0.10;99.90;;;;;;4944912;28;20037;-64
2023/12/06 10:26:14;;;;;;;87.60;38.75;;;0.10;99.90;;;;;;5001315;28;20030;-60
2023/12/06 10:28:39;;;;;;;92.75;38.92;;;0.10;99.90;;;;;;4928663;28;20030;-59
2023/12/06 10:31:06;;;;;;;88.78;38.33;;;0.00;99.90;;;;;;4930090;28;20072;-59
2023/12/06 10:33:32;;;;;;;88.70;37.28;;;0.10;99.90;;;;;;4922086;28;20429;-56
2023/12/06 10:35:59;;;;;;;87.47;39.13;;;0.10;99.90;;;;;;4943199;28;20034;-60
2023/12/06 10:38:29;;;;;;;85.47;41.50;;;0.10;99.90;;;;;;4994015;28;20169;-58
2023/12/06 10:40:58;;;;;;;91.72;40.22;;;0.10;99.90;;;;;;5003533;28;20029;-59
2023/12/06 10:43:26;;;;;;;86.05;37.65;;;0.10;99.90;;;;;;4941190;28;20021;-60
2023/12/06 10:45:52;;;;;;;77.40;36.50;;;0.10;99.90;;;;;;4928374;28;20477;-60
2023/12/06 10:48:18;;;;;;;78.57;37.20;;;0.10;99.90;;;;;;4924830;28;20026;-61
2023/12/06 10:50:45;;;;;;;84.97;37.08;;;0.20;99.90;;;;;;4937721;28;20101;-60
2023/12/06 10:53:14;;;;;;;87.28;38.75;;;0.20;99.90;;;;;;4982857;28;20058;-60
2023/12/06 10:55:41;;;;;;;83.28;38.75;;;0.20;99.90;;;;;;4936754;28;20018;-59
2023/12/06 10:58:08;;;;;;;90.15;38.20;;;0.20;99.90;;;;;;4933531;28;20034;-63
2023/12/06 11:00:34;;;;;;;86.07;39.38;;;0.20;99.90;;;;;;4936566;28;20045;-60
2023/12/06 11:03:01;;;;;;;87.88;41.40;;;0.20;99.90;;;;;;4938433;28;20100;-61
2023/12/06 11:05:30;;;;;;;87.07;39.97;;;0.20;99.90;;;;;;4998125;28;20034;-58
2023/12/06 11:08:08;;;;;;;85.32;39.25;;;0.20;99.90;;;;;;4951756;28;20030;-60
2023/12/06 11:10:52;;;;;;;88.10;39.90;;;0.20;99.90;;;;;;5004337;28;20018;-61
2023/12/06 11:13:54;;;;;;;84.30;39.63;;;0.30;99.90;;;;;;4937394;28;20028;-61
2023/12/06 11:16:23;;;;;;;83.55;37.20;;;0.20;99.90;;;;;;4978871;28;20529;-61
2023/12/06 11:18:51;;;;;;;86.88;38.85;;;0.20;99.90;;;;;;4966430;28;20034;-61
2023/12/06 11:21:19;;;;;;;86.28;38.85;;;0.10;99.90;;;;;;4984497;28;20021;-61
2023/12/06 11:23:46;;;;;;;83.93;38.67;;;0.20;99.90;;;;;;4969982;28;20026;-62
2023/12/06 11:26:12;;;;;;;85.38;39.13;;;0.20;99.90;;;;;;4987295;28;20264;-60
2023/12/06 11:28:40;;;;;;;81.88;38.45;;;0.20;99.90;;;;;;4985887;28;20022;-61
2023/12/06 11:31:07;;;;;;;82.53;35.67;;;0.20;99.90;;;;;;4970630;28;20044;-61
2023/12/06 11:33:33;;;;;;;83.18;39.17;;;0.20;99.90;;;;;;4980435;28;20028;-61
2023/12/06 11:35:59;;;;;;;86.72;37.25;;;0.20;99.90;;;;;;4980421;28;20405;-61
2023/12/06 11:38:35;;;;;;;97.68;41.67;;;0.30;99.90;;;;;;4986503;28;20037;-62
2023/12/06 11:41:01;;;;;;;75.30;35.13;;;0.30;99.90;;;;;;4988133;28;20116;-61
2023/12/06 11:43:35;;;;;;;85.40;39.67;;;0.30;99.90;;;;;;4969798;28;20569;-60
2023/12/06 11:46:05;;;;;;;79.68;35.30;;;0.30;99.90;;;;;;5002194;28;20026;-61
2023/12/06 11:48:37;;;;;;;88.70;37.95;;;0.30;99.90;;;;;;4994673;28;20030;-59
2023/12/06 11:51:03;;;;;;;82.88;38.15;;;0.30;99.90;;;;;;5007508;28;20088;-58
2023/12/06 11:53:30;;;;;;;93.40;42.80;;;0.30;99.90;;;;;;5003577;28;20065;-59
2023/12/06 11:55:55;;;;;;;77.40;38.15;;;0.30;99.90;;;;;;4994593;28;20105;-58
2023/12/06 11:58:22;;;;;;;75.57;37.20;;;0.20;99.90;;;;;;4997679;28;20117;-58
2023/12/06 12:00:51;;;;;;;89.30;42.35;;;0.20;99.90;;;;;;4983425;28;20053;-57
2023/12/06 12:03:17;;;;;;;89.78;38.58;;;0.20;99.90;;;;;;4998102;28;20391;-58
2023/12/06 12:05:44;;;;;;;88.20;41.33;;;0.20;99.90;;;;;;4997059;28;20080;-59
2023/12/06 12:08:13;;;;;;;83.72;36.90;;;0.30;99.90;;;;;;4992127;28;21625;-55
2023/12/06 12:10:43;;;;;;;76.75;36.92;;;0.20;99.90;;;;;;4997050;28;20486;-57
2023/12/06 12:13:36;;;;;;;86.07;40.92;;;0.20;99.90;;;;;;4997699;28;20096;-57
2023/12/06 12:16:02;;;;;;;81.72;37.00;;;0.20;99.90;;;;;;4980313;28;20041;-58
2023/12/06 12:18:28;;;;;;;79.43;36.25;;;0.20;99.90;;;;;;5000540;28;20092;-55
2023/12/06 12:20:55;;;;;;;87.45;40.65;;;0.20;99.90;;;;;;4988072;28;20437;-57
2023/12/06 12:23:25;;;;;;;86.93;38.58;;;0.20;99.90;;;;;;4979871;28;20045;-59